Time;durP1;ratioP1;P1;durP2;ratioP2;P2;SDS_P1;SDS_P2;PMS_P1;PMS_P2;Temp;Humidity;BMP_temperature;BMP_pressure;BME280_temperature;BME280_humidity;BME280_pressure;Samples;Min_cycle;Max_cycle;Signal;HPM_P1;HPM_P2
2021/01/19 00:01:09;;;;;;;38.55;13.78;;;;;;;-16.69;92.30;101269.72;1762408;81;21588;-85
2021/01/19 00:08:00;;;;;;;41.60;16.80;;;;;;;-16.85;91.80;101265.27;1715483;83;21156;-85
2021/01/19 00:14:53;;;;;;;27.40;10.15;;;;;;;-16.89;91.75;101271.28;1715659;83;21127;-85
2021/01/19 00:21:45;;;;;;;37.20;14.55;;;;;;;-16.87;91.70;101261.88;1758256;81;21506;-85
2021/01/19 00:28:36;;;;;;;35.40;14.18;;;;;;;-17.08;90.86;101255.89;1714659;83;21167;-86
2021/01/19 00:35:09;;;;;;;32.50;13.95;;;;;;;-17.18;90.94;101244.23;1714894;83;21147;-85
2021/01/19 00:42:01;;;;;;;32.30;12.73;;;;;;;-17.25;91.06;101238.50;1760173;79;21051;-85
2021/01/19 00:52:28;;;;;;;27.42;9.85;;;;;;;-17.10;91.53;101243.78;1699806;84;21151;-85
2021/01/19 00:59:20;;;;;;;23.27;10.60;;;;;;;-17.05;91.17;101248.17;1707095;84;21159;-85
2021/01/19 01:05:52;;;;;;;45.88;17.77;;;;;;;-17.12;90.64;101253.64;1759910;81;21149;-85
2021/01/19 01:12:45;;;;;;;36.10;12.85;;;;;;;-17.35;90.54;101255.89;1745416;81;21582;-85
2021/01/19 01:19:37;;;;;;;27.55;10.80;;;;;;;-17.44;90.75;101253.34;1713868;83;21071;-85
2021/01/19 01:26:29;;;;;;;31.45;11.38;;;;;;;-17.36;91.11;101257.06;1707096;84;21443;-85
2021/01/19 01:33:20;;;;;;;39.88;14.78;;;;;;;-17.23;91.44;101263.50;1760811;81;21121;-85
2021/01/19 01:40:20;;;;;;;28.83;11.53;;;;;;;-17.08;91.38;101261.74;1698550;84;21160;-85
2021/01/19 01:46:42;;;;;;;27.35;11.20;;;;;;;-17.19;90.84;101270.33;1712012;83;21550;-85
2021/01/19 01:53:35;;;;;;;28.07;11.85;;;;;;;-17.11;91.43;101265.33;1710685;83;21079;-86
2021/01/19 02:00:26;;;;;;;40.12;13.58;;;;;;;-16.96;91.54;101263.09;1720941;83;21158;-85
2021/01/19 02:07:03;;;;;;;32.45;12.00;;;;;;;-17.09;90.70;101265.39;1710702;83;21563;-86
2021/01/19 02:14:21;;;;;;;35.43;11.85;;;;;;;-17.14;91.05;101266.04;1710698;83;21127;-86
2021/01/19 02:25:49;;;;;;;38.20;14.07;;;;;;;-17.22;90.51;101268.55;1757367;81;21160;-86
2021/01/19 02:36:51;;;;;;;42.55;13.48;;;;;;;-17.63;90.14;101274.46;1757363;81;21454;-85
2021/01/19 02:47:15;;;;;;;47.25;14.90;;;;;;;-17.76;90.21;101270.87;1711061;83;21152;-84
2021/01/19 02:54:06;;;;;;;30.45;10.53;;;;;;;-17.67;90.93;101275.47;1710810;83;21535;-84
2021/01/19 03:01:08;;;;;;;37.13;12.13;;;;;;;-17.44;91.26;101277.00;1748910;81;21161;-84
2021/01/19 03:07:45;;;;;;;36.65;13.98;;;;;;;-17.32;90.85;101271.36;1711051;83;21551;-86
2021/01/19 03:14:38;;;;;;;49.53;17.62;;;;;;;-17.18;90.77;101283.25;1738106;82;21120;-84
2021/01/19 03:21:29;;;;;;;32.40;12.45;;;;;;;-17.09;90.37;101274.98;1786812;80;21016;-85
2021/01/19 03:28:20;;;;;;;47.45;17.12;;;;;;;-17.02;90.10;101290.69;1777134;80;21143;-86
2021/01/19 03:35:12;;;;;;;43.15;14.63;;;;;;;-17.12;89.20;101291.01;1776050;80;21008;-85
2021/01/19 03:42:04;;;;;;;49.93;19.45;;;;;;;-17.22;88.82;101286.38;1776075;80;21140;-85
2021/01/19 03:48:47;;;;;;;44.45;15.30;;;;;;;-17.30;88.65;101279.77;1776766;79;21148;-85
2021/01/19 03:55:39;;;;;;;23.75;9.00;;;;;;;-17.34;89.07;101273.78;1775952;80;21175;-85
2021/01/19 04:02:30;;;;;;;28.12;12.40;;;;;;;-17.14;89.91;101264.80;1775949;80;21053;-84
2021/01/19 04:09:03;;;;;;;33.00;11.83;;;;;;;-16.94;91.81;101277.33;1776012;80;21132;-84
2021/01/19 04:15:55;;;;;;;32.08;13.50;;;;;;;-16.71;93.53;101288.77;1776048;80;21461;-85
2021/01/19 04:22:47;;;;;;;57.70;19.17;;;;;;;-16.52;94.85;101288.81;1776096;80;21167;-84
2021/01/19 04:29:38;;;;;;;41.23;14.90;;;;;;;-16.30;95.65;101287.70;1759655;80;21181;-85
2021/01/19 04:36:29;;;;;;;39.70;15.43;;;;;;;-16.06;96.26;101290.45;1746774;82;21181;-84
2021/01/19 04:43:21;;;;;;;49.70;16.60;;;;;;;-15.88;96.65;101284.99;1746983;80;21124;-85
2021/01/19 04:54:11;;;;;;;50.92;18.90;;;;;;;-15.70;97.33;101292.38;1765052;81;21129;-85
2021/01/19 05:01:08;;;;;;;58.92;20.85;;;;;;;-15.61;97.85;101299.43;1765044;81;21113;-85
2021/01/19 05:12:05;;;;;;;45.83;17.92;;;;;;;-15.42;98.52;101303.96;1765095;81;21134;-85
2021/01/19 05:18:59;;;;;;;55.10;20.00;;;;;;;-15.31;98.81;101294.00;1765094;81;21533;-85
2021/01/19 05:25:59;;;;;;;27.77;11.83;;;;;;;-15.21;99.01;101293.14;1765039;81;21162;-86
2021/01/19 05:37:19;;;;;;;31.23;12.35;;;;;;;-15.15;99.34;101301.75;1765076;81;21188;-85
2021/01/19 05:43:55;;;;;;;43.30;17.52;;;;;;;-15.10;99.50;101306.53;1794259;78;21119;-84
2021/01/19 05:50:20;;;;;;;49.05;18.85;;;;;;;-15.02;99.62;101316.82;1778037;79;21141;-88
2021/01/19 05:52:51;;;;;;;47.20;19.27;;;;;;;-14.98;99.60;101314.92;1764157;80;22279;-88
2021/01/19 05:55:27;;;;;;;52.35;22.48;;;;;;;-14.97;99.57;101320.38;1758393;81;21668;-88
2021/01/19 05:57:56;;;;;;;42.50;17.05;;;;;;;-14.96;99.53;101322.47;1762639;80;21224;-88
2021/01/19 06:00:26;;;;;;;56.35;21.77;;;;;;;-14.92;99.57;101318.06;1764264;81;21181;-88
2021/01/19 06:02:55;;;;;;;38.98;16.97;;;;;;;-14.91;99.58;101318.53;1785101;79;21129;-88
2021/01/19 06:05:24;;;;;;;42.67;17.25;;;;;;;-14.88;99.47;101325.30;1696053;83;21301;-88
2021/01/19 06:07:54;;;;;;;42.13;17.57;;;;;;;-14.87;99.37;101329.09;1715374;82;21588;-88
2021/01/19 06:10:24;;;;;;;47.48;22.22;;;;;;;-14.87;99.43;101328.25;1705288;82;21128;-88
2021/01/19 06:12:53;;;;;;;;;;;;;;;-14.86;99.51;101338.31;1713317;82;21060;-88
2021/01/19 06:15:29;;;;;;;48.33;19.55;;;;;;;-14.83;99.51;101332.20;1720265;81;20790;-88
2021/01/19 06:18:00;;;;;;;39.67;17.25;;;;;;;-14.81;99.50;101336.84;1728154;82;21377;-88
2021/01/19 06:20:27;;;;;;;45.80;17.55;;;;;;;-14.78;99.49;101329.88;1728240;83;21099;-88
2021/01/19 06:23:06;;;;;;;45.43;19.35;;;;;;;-14.77;99.43;101334.94;1728327;83;21473;-89
2021/01/19 06:25:33;;;;;;;48.73;17.52;;;;;;;-14.72;99.41;101332.99;1718458;83;21172;-88
2021/01/19 06:28:12;;;;;;;50.12;22.17;;;;;;;-14.68;99.23;101333.18;1709635;82;21179;-88
2021/01/19 06:30:40;;;;;;;41.70;18.00;;;;;;;-14.63;99.25;101339.59;1722984;82;21576;-87
2021/01/19 06:33:10;;;;;;;40.05;18.52;;;;;;;-14.58;99.29;101340.64;1718105;82;21227;-89
2021/01/19 06:35:42;;;;;;;41.10;18.45;;;;;;;-14.47;100.00;101339.80;1718766;82;21120;-89
2021/01/19 06:38:12;;;;;;;37.65;16.93;;;;;;;-14.28;100.00;101341.36;1718126;82;22056;-89
2021/01/19 06:40:42;;;;;;;;;;;;;;;-14.29;99.70;101344.66;1716589;82;21148;-88
2021/01/19 06:43:20;;;;;;;34.38;14.95;;;;;;;-14.33;100.00;101346.19;1709160;82;21193;-90
2021/01/19 06:45:51;;;;;;;43.58;15.83;;;;;;;-14.07;100.00;101344.20;1694399;83;21173;-89
2021/01/19 06:48:20;;;;;;;29.35;12.07;;;;;;;-13.85;100.00;101342.10;1658593;86;21265;-89
2021/01/19 06:50:53;;;;;;;34.67;15.30;;;;;;;-13.92;100.00;101341.42;1663720;85;21224;-90
2021/01/19 06:53:45;;;;;;;23.62;9.85;;;;;;;-14.09;100.00;101342.91;1659020;86;21636;-89
2021/01/19 06:56:16;;;;;;;41.28;15.93;;;;;;;-14.23;98.56;101351.55;1725993;82;21304;-91
2021/01/19 06:58:53;;;;;;;37.30;14.55;;;;;;;-14.34;99.56;101353.23;1664168;85;21135;-88
2021/01/19 07:01:27;;;;;;;35.25;13.95;;;;;;;-14.22;100.00;101352.84;1702023;81;21127;-89
2021/01/19 07:04:24;;;;;;;32.98;13.70;;;;;;;-14.18;100.00;101357.57;1719556;81;21218;-89
2021/01/19 07:07:10;;;;;;;33.58;15.83;;;;;;;-14.27;98.35;101353.92;1699312;84;21194;-90
2021/01/19 07:10:05;;;;;;;39.67;16.45;;;;;;;-14.40;97.34;101354.63;1696813;84;21208;-90
2021/01/19 07:13:00;;;;;;;26.85;8.78;;;;;;;-14.50;97.02;101351.77;1696111;82;21131;-90
2021/01/19 07:15:56;;;;;;;36.17;14.40;;;;;;;-14.57;96.63;101357.33;1697776;83;21152;-91
2021/01/19 07:18:48;;;;;;;29.30;13.08;;;;;;;-14.62;96.42;101358.39;1716211;82;22284;-90
2021/01/19 07:21:19;;;;;;;35.13;14.47;;;;;;;-14.64;96.16;101348.75;1717120;83;21159;-89
2021/01/19 07:24:07;;;;;;;50.30;19.90;;;;;;;-14.64;96.84;101346.25;1717450;83;21227;-89
2021/01/19 07:26:38;;;;;;;37.20;15.30;;;;;;;-14.55;97.74;101338.65;1713526;82;21203;-88
2021/01/19 07:29:07;;;;;;;;;;;;;;;-14.43;98.01;101339.11;1718861;82;21172;-89
2021/01/19 07:31:35;;;;;;;30.35;11.85;;;;;;;-14.37;97.07;101351.85;1715226;82;20222;-88
2021/01/19 07:34:05;;;;;;;37.10;14.73;;;;;;;-14.46;96.40;101352.77;1714573;83;21081;-89
2021/01/19 07:36:34;;;;;;;38.67;16.85;;;;;;;-14.43;97.29;101345.37;1717910;83;22250;-90
2021/01/19 07:39:15;;;;;;;36.73;16.07;;;;;;;-14.40;96.20;101350.50;1716604;83;21131;-88
2021/01/19 07:41:44;;;;;;;34.92;14.68;;;;;;;-14.38;96.33;101340.16;1715780;81;21128;-88
2021/01/19 07:44:23;;;;;;;25.57;12.07;;;;;;;-14.45;95.21;101334.06;1726879;80;21194;-89
2021/01/19 07:46:53;;;;;;;21.97;7.47;;;;;;;-14.56;93.51;101346.53;1736530;82;21186;-89
2021/01/19 07:49:31;;;;;;;43.90;20.15;;;;;;;-14.68;93.73;101346.94;1778271;79;22206;-89
2021/01/19 07:52:15;;;;;;;37.15;14.28;;;;;;;-14.75;93.96;101348.73;1769840;81;21606;-89
2021/01/19 07:54:43;;;;;;;41.33;16.50;;;;;;;-14.77;94.00;101358.69;1734867;82;21076;-89
2021/01/19 07:57:16;;;;;;;30.88;13.38;;;;;;;-14.70;94.00;101358.92;1711004;82;21163;-89
2021/01/19 07:59:45;;;;;;;43.42;16.60;;;;;;;-14.67;94.10;101356.56;1734804;81;21140;-88
2021/01/19 08:02:23;;;;;;;49.23;17.45;;;;;;;-14.60;94.03;101358.06;1710558;82;21518;-89
2021/01/19 08:05:06;;;;;;;43.48;17.85;;;;;;;-14.49;93.67;101357.64;1734512;82;21092;-89
2021/01/19 08:07:40;;;;;;;40.33;16.45;;;;;;;-14.42;93.49;101360.84;1711005;83;21152;-89
2021/01/19 08:10:24;;;;;;;36.20;15.98;;;;;;;-14.37;92.92;101366.87;1734769;82;21191;-90
2021/01/19 08:12:56;;;;;;;42.00;17.25;;;;;;;-14.34;92.44;101368.66;1708733;81;21063;-89
2021/01/19 08:15:32;;;;;;;44.65;17.05;;;;;;;-14.36;92.24;101369.83;1711306;82;22275;-89
2021/01/19 08:18:05;;;;;;;12.95;7.15;;;;;;;-14.37;91.79;101374.38;1729467;80;21583;-88
2021/01/19 08:20:35;;;;;;;42.08;17.62;;;;;;;-14.35;91.84;101377.80;1753436;80;21225;-87
2021/01/19 08:23:17;;;;;;;47.73;20.60;;;;;;;-14.32;91.89;101378.31;1776026;78;21165;-87
2021/01/19 08:25:45;;;;;;;49.13;19.77;;;;;;;-14.23;91.79;101374.08;1767077;79;21558;-87
2021/01/19 08:28:14;;;;;;;46.35;20.50;;;;;;;-14.13;91.93;101377.36;1764056;81;21428;-87
2021/01/19 08:30:45;;;;;;;38.67;15.25;;;;;;;-14.04;91.56;101380.22;1774193;78;21106;-87
2021/01/19 08:33:14;;;;;;;43.92;18.30;;;;;;;-13.93;91.32;101383.13;1820210;78;21038;-87
2021/01/19 08:35:45;;;;;;;46.20;18.65;;;;;;;-13.82;91.27;101384.80;1794250;78;21054;-88
2021/01/19 08:38:13;;;;;;;41.68;15.70;;;;;;;-13.72;90.66;101388.08;1763748;79;21149;-87
2021/01/19 08:40:41;;;;;;;28.90;14.20;;;;;;;-13.67;89.78;101386.61;1794803;79;21348;-87
2021/01/19 08:43:10;;;;;;;40.95;16.45;;;;;;;-13.66;89.20;101371.17;1795495;79;21165;-87
2021/01/19 08:45:39;;;;;;;28.98;12.10;;;;;;;-13.71;88.42;101378.93;1788289;79;21572;-87
2021/01/19 08:48:10;;;;;;;50.78;19.52;;;;;;;-13.83;88.22;101373.07;1772618;80;21236;-87
2021/01/19 08:50:42;;;;;;;36.20;15.20;;;;;;;-13.91;88.48;101370.68;1780720;80;21141;-87
2021/01/19 08:53:13;;;;;;;42.40;17.65;;;;;;;-13.91;88.82;101371.52;1780077;78;21830;-87
2021/01/19 08:55:45;;;;;;;;;;;;;;;-13.90;88.61;101370.73;1787994;80;21202;-87
2021/01/19 08:58:20;;;;;;;20.05;9.30;;;;;;;-13.87;88.31;101366.22;1794970;78;20547;-87
2021/01/19 09:00:49;;;;;;;12.90;5.78;;;;;;;-13.86;88.09;101368.78;1795384;79;21141;-87
2021/01/19 09:03:18;;;;;;;42.67;16.37;;;;;;;-13.84;88.54;101368.44;1795390;79;21193;-87
2021/01/19 09:05:48;;;;;;;46.08;19.27;;;;;;;-13.73;88.48;101369.23;1795028;79;21177;-87
2021/01/19 09:08:20;;;;;;;39.60;15.08;;;;;;;-13.65;88.36;101362.86;1768497;79;21896;-87
2021/01/19 09:10:48;;;;;;;41.48;18.12;;;;;;;-13.58;87.83;101366.03;1762850;80;21543;-86
2021/01/19 09:13:21;;;;;;;27.17;12.58;;;;;;;-13.53;87.87;101364.95;1752303;80;21209;-87
2021/01/19 09:28:37;;;;;;;39.58;15.20;;;;;;;-13.26;86.20;101362.93;1670520;83;21166;-87
2021/01/19 09:35:29;;;;;;;41.00;15.40;;;;;;;-13.31;85.91;101361.52;1720424;82;21194;-87
2021/01/19 09:38:04;;;;;;;21.82;9.35;;;;;;;-13.28;85.79;101350.73;1742845;82;22118;-87
2021/01/19 09:40:39;;;;;;;42.33;17.48;;;;;;;-13.31;84.77;101354.00;1750120;81;21146;-86
2021/01/19 09:43:13;;;;;;;38.40;15.90;;;;;;;-13.38;85.21;101354.17;1741146;81;21115;-84
2021/01/19 09:45:45;;;;;;;36.38;13.43;;;;;;;-13.36;85.97;101357.59;1716930;83;21464;-87
2021/01/19 09:48:18;;;;;;;42.33;19.27;;;;;;;-13.29;85.53;101356.55;1724196;82;21587;-87
2021/01/19 09:50:45;;;;;;;44.60;17.62;;;;;;;-13.21;85.92;101357.66;1714921;83;21379;-87
2021/01/19 09:53:25;;;;;;;24.60;11.80;;;;;;;-13.11;85.92;101360.95;1723390;82;21170;-87
2021/01/19 09:55:56;;;;;;;42.93;18.90;;;;;;;-13.09;85.34;101350.55;1731118;82;21154;-87
2021/01/19 09:58:26;;;;;;;41.08;17.60;;;;;;;-13.06;85.43;101334.36;1722433;82;21991;-87
2021/01/19 10:04:51;;;;;;;34.05;13.08;;;;;;;-12.98;85.05;101348.80;1718622;83;22322;-87
2021/01/19 10:07:48;;;;;;;37.50;17.23;;;;;;;-12.96;84.22;101353.06;1714946;83;21115;-87
2021/01/19 10:10:19;;;;;;;33.50;14.20;;;;;;;-13.05;84.33;101347.73;1718765;83;21143;-88
2021/01/19 10:12:47;;;;;;;32.28;14.53;;;;;;;-13.11;84.13;101356.31;1718892;83;21183;-88
2021/01/19 10:15:22;;;;;;;42.17;17.60;;;;;;;-13.18;84.09;101355.27;1718759;83;21594;-88
2021/01/19 10:18:22;;;;;;;42.27;17.52;;;;;;;-13.25;84.05;101353.33;1718811;83;21467;-86
2021/01/19 10:20:53;;;;;;;34.27;13.58;;;;;;;-13.27;84.21;101349.53;1739823;82;21449;-86
2021/01/19 10:23:28;;;;;;;33.78;12.95;;;;;;;-13.28;84.39;101356.59;1720354;83;21115;-87
2021/01/19 10:26:10;;;;;;;34.03;13.45;;;;;;;-13.27;84.42;101358.30;1717798;82;21587;-86
2021/01/19 10:29:06;;;;;;;44.33;16.55;;;;;;;-13.22;84.43;101358.46;1731262;81;21131;-86
2021/01/19 10:31:43;;;;;;;27.40;11.68;;;;;;;-13.22;84.66;101351.81;1755810;80;21189;-86
2021/01/19 10:37:58;;;;;;;34.75;13.35;;;;;;;-13.08;83.79;101340.97;1751468;81;21178;-87
2021/01/19 10:40:27;;;;;;;42.00;17.35;;;;;;;-13.09;83.84;101348.03;1746276;80;21187;-86
2021/01/19 10:43:10;;;;;;;26.45;10.82;;;;;;;-13.07;83.92;101342.68;1741518;80;21299;-86
2021/01/19 10:45:41;;;;;;;42.25;16.42;;;;;;;-13.04;83.44;101341.92;1723667;83;22259;-86
2021/01/19 10:48:20;;;;;;;;;;;;;;;-13.07;83.35;101335.16;1735132;81;21139;-86
2021/01/19 10:50:51;;;;;;;34.10;13.88;;;;;;;-13.12;83.16;101347.95;1734943;81;20222;-86
2021/01/19 10:53:30;;;;;;;;;;;;;;;-13.20;83.63;101342.66;1728949;82;21239;-86
2021/01/19 10:55:57;;;;;;;20.70;9.85;;;;;;;-13.20;83.81;101338.06;1738914;81;20295;-86
2021/01/19 10:58:26;;;;;;;42.43;16.85;;;;;;;-13.27;83.86;101340.75;1730760;81;21368;-86
2021/01/19 11:00:58;;;;;;;43.78;17.70;;;;;;;-13.30;84.09;101336.04;1726197;83;21196;-86
2021/01/19 11:03:29;;;;;;;43.50;18.05;;;;;;;-13.22;84.64;101338.02;1726160;83;21562;-86
2021/01/19 11:05:57;;;;;;;32.78;14.03;;;;;;;-13.09;84.64;101334.25;1727142;81;21151;-86
2021/01/19 11:08:24;;;;;;;41.15;15.98;;;;;;;-12.98;84.86;101332.50;1742192;81;21186;-86
2021/01/19 11:10:53;;;;;;;35.40;15.40;;;;;;;-12.87;84.68;101324.94;1750331;81;21620;-86
2021/01/19 11:13:25;;;;;;;42.90;17.62;;;;;;;-12.79;84.34;101329.80;1745119;82;21583;-86
2021/01/19 11:15:53;;;;;;;37.80;17.20;;;;;;;-12.74;84.10;101336.22;1745032;82;21621;-86
2021/01/19 11:18:27;;;;;;;35.23;15.70;;;;;;;-12.72;84.23;101335.47;1745133;81;21163;-86
2021/01/19 11:20:59;;;;;;;36.83;14.30;;;;;;;-12.62;84.28;101329.07;1745178;82;21080;-88
2021/01/19 11:23:29;;;;;;;42.43;16.67;;;;;;;-12.59;83.30;101337.09;1745274;81;22167;-85
2021/01/19 11:25:59;;;;;;;40.35;15.58;;;;;;;-12.71;83.00;101329.65;1745072;82;21633;-86
2021/01/19 11:28:34;;;;;;;36.43;14.63;;;;;;;-12.77;83.17;101333.61;1747818;81;21154;-88
2021/01/19 11:34:25;;;;;;;40.78;17.92;;;;;;;-12.78;83.36;101332.77;1745840;82;21158;-87
2021/01/19 11:36:55;;;;;;;39.03;16.27;;;;;;;-12.73;83.35;101333.75;1745736;82;21365;-87
2021/01/19 11:39:23;;;;;;;33.10;14.80;;;;;;;-12.70;83.10;101333.83;1731600;82;21206;-88
2021/01/19 11:41:52;;;;;;;36.58;15.32;;;;;;;-12.71;82.67;101337.17;1715980;83;21147;-87
2021/01/19 11:44:22;;;;;;;35.55;15.23;;;;;;;-12.80;82.44;101336.88;1717223;82;21147;-87
2021/01/19 11:46:50;;;;;;;34.48;15.72;;;;;;;-12.85;82.22;101335.47;1721438;80;21163;-90
2021/01/19 11:49:18;;;;;;;37.58;14.73;;;;;;;-12.90;82.56;101333.22;1728107;82;22122;-90
2021/01/19 11:51:47;;;;;;;46.48;19.32;;;;;;;-12.92;82.46;101336.45;1740511;81;21193;-89
2021/01/19 11:54:15;;;;;;;35.05;14.35;;;;;;;-12.95;82.51;101339.73;1727142;82;21142;-90
2021/01/19 11:56:49;;;;;;;40.85;17.02;;;;;;;-12.96;82.37;101339.69;1727514;83;21150;-90
2021/01/19 11:59:19;;;;;;;37.33;14.07;;;;;;;-13.03;82.29;101340.74;1724612;83;21154;-89
2021/01/19 12:01:55;;;;;;;37.85;15.95;;;;;;;-13.10;82.10;101345.48;1724332;82;21395;-90
2021/01/19 12:04:24;;;;;;;37.88;15.45;;;;;;;-13.20;82.27;101352.70;1724840;82;21198;-89
2021/01/19 12:06:52;;;;;;;30.08;14.23;;;;;;;-13.24;82.71;101348.77;1727422;83;21536;-89
2021/01/19 12:09:22;;;;;;;32.48;14.18;;;;;;;-13.22;82.93;101354.70;1727460;83;21158;-89
2021/01/19 12:11:56;;;;;;;30.07;13.27;;;;;;;;;;1715960;82;21671;-89
2021/01/19 12:14:54;;;;;;;30.43;11.90;;;;;;;-13.18;82.88;101349.84;1738811;82;21328;-89
2021/01/19 12:17:28;;;;;;;41.20;14.38;;;;;;;-13.21;82.48;101354.74;1715734;83;21246;-90
2021/01/19 12:20:06;;;;;;;35.88;13.48;;;;;;;-13.27;82.74;101359.97;1740300;81;21151;-89
2021/01/19 12:22:34;;;;;;;35.85;13.60;;;;;;;-13.33;82.70;101358.94;1745601;82;21219;-88
2021/01/19 12:25:04;;;;;;;44.75;17.07;;;;;;;-13.38;82.89;101367.95;1736600;81;21171;-89
2021/01/19 12:27:48;;;;;;;41.75;18.37;;;;;;;-13.45;83.14;101366.08;1717710;82;21662;-89
2021/01/19 12:30:24;;;;;;;36.20;16.77;;;;;;;-13.47;83.56;101365.16;1728103;83;21222;-89
2021/01/19 12:33:20;;;;;;;39.55;17.42;;;;;;;-13.44;83.84;101367.78;1739537;81;21147;-89
2021/01/19 12:35:51;;;;;;;42.70;16.97;;;;;;;-13.40;83.98;101369.58;1746659;81;21080;-89
2021/01/19 12:38:19;;;;;;;45.73;18.35;;;;;;;-13.38;83.68;101372.97;1697891;83;21091;-89
2021/01/19 12:40:47;;;;;;;34.05;13.55;;;;;;;-13.40;83.60;101378.36;1742741;80;21263;-89
2021/01/19 12:43:45;;;;;;;37.33;14.40;;;;;;;-13.39;83.72;101381.32;1726826;83;21184;-89
2021/01/19 12:46:41;;;;;;;39.25;13.85;;;;;;;-13.38;83.51;101376.73;1735650;81;21178;-89
2021/01/19 12:49:09;;;;;;;34.13;13.08;;;;;;;-13.39;83.30;101385.08;1758519;81;21135;-89
2021/01/19 12:51:37;;;;;;;37.03;16.02;;;;;;;-13.45;83.34;101386.13;1748888;81;21178;-89
2021/01/19 12:54:05;;;;;;;23.10;7.78;;;;;;;-13.49;83.48;101384.29;1749697;81;21560;-89
2021/01/19 12:56:34;;;;;;;40.92;15.40;;;;;;;-13.61;83.10;101388.45;1758446;81;21178;-88
2021/01/19 12:59:02;;;;;;;38.83;16.20;;;;;;;-13.67;83.45;101390.75;1758613;80;21646;-88
2021/01/19 13:01:37;;;;;;;41.60;15.55;;;;;;;-13.73;83.81;101390.13;1758489;81;21202;-89
2021/01/19 13:04:06;;;;;;;41.77;16.87;;;;;;;-13.75;84.05;101389.23;1758580;81;21142;-88
2021/01/19 13:06:34;;;;;;;28.30;12.63;;;;;;;-13.77;84.31;101391.20;1758209;81;22266;-88
2021/01/19 13:09:02;;;;;;;34.05;14.87;;;;;;;-13.80;84.39;101390.70;1758400;81;21079;-88
2021/01/19 13:11:30;;;;;;;38.15;15.23;;;;;;;-13.81;84.58;101395.24;1754629;81;21138;-88
2021/01/19 13:13:58;;;;;;;42.08;16.37;;;;;;;-13.81;84.61;101396.50;1746337;81;21154;-88
2021/01/19 13:16:27;;;;;;;28.50;11.38;;;;;;;-13.83;84.74;101392.69;1728142;82;21241;-88
2021/01/19 13:19:02;;;;;;;38.93;15.40;;;;;;;-13.85;84.74;101390.94;1728697;83;21637;-88
2021/01/19 13:21:40;;;;;;;33.42;14.30;;;;;;;-13.92;84.84;101402.36;1743953;81;43224;-88
2021/01/19 13:24:14;;;;;;;35.08;14.20;;;;;;;-13.95;85.19;101397.25;1754106;81;21168;-87
2021/01/19 13:26:43;;;;;;;35.13;12.07;;;;;;;-13.90;85.30;101402.03;1741599;81;21179;-88
2021/01/19 13:29:11;;;;;;;35.83;16.37;;;;;;;-13.88;85.24;101411.71;1728352;83;21262;-88
2021/01/19 13:31:39;;;;;;;29.65;12.88;;;;;;;-13.90;85.00;101407.45;1731509;81;22179;-89
2021/01/19 13:34:14;;;;;;;42.88;16.70;;;;;;;-13.91;84.94;101414.09;1742411;81;21174;-88
2021/01/19 13:36:44;;;;;;;37.73;16.17;;;;;;;-13.99;85.02;101413.81;1729471;80;21174;-88
2021/01/19 13:39:13;;;;;;;36.17;12.73;;;;;;;-14.06;85.18;101420.64;1728206;82;21142;-89
2021/01/19 13:41:41;;;;;;;44.10;17.90;;;;;;;-14.10;85.34;101422.96;1730252;81;21167;-88
2021/01/19 13:44:09;;;;;;;45.50;20.08;;;;;;;-14.12;85.45;101414.12;1728370;83;21452;-88
2021/01/19 13:46:38;;;;;;;35.90;14.98;;;;;;;-14.14;85.78;101419.48;1728228;83;21197;-88
2021/01/19 13:49:06;;;;;;;39.73;16.80;;;;;;;-14.14;86.01;101425.34;1728862;81;21225;-89
2021/01/19 13:51:44;;;;;;;32.73;13.88;;;;;;;-14.12;85.95;101420.37;1748661;81;21178;-89
2021/01/19 13:54:40;;;;;;;45.00;15.48;;;;;;;-14.15;85.96;101423.63;1728475;83;21563;-90
2021/01/19 13:57:08;;;;;;;38.50;14.63;;;;;;;-14.17;86.04;101422.70;1741760;81;21383;-89
2021/01/19 13:59:36;;;;;;;40.17;15.68;;;;;;;-14.19;86.04;101418.44;1732647;81;21150;-91
2021/01/19 14:05:32;;;;;;;38.28;15.83;;;;;;;-14.29;86.06;101421.82;1730667;81;21218;-90
2021/01/19 14:08:33;;;;;;;41.68;17.52;;;;;;;-14.34;86.50;101428.72;1751429;81;21158;-89
2021/01/19 14:11:30;;;;;;;38.50;15.50;;;;;;;-14.35;86.54;101432.84;1758301;81;21186;-90
2021/01/19 14:17:23;;;;;;;40.03;12.73;;;;;;;-14.10;91.70;101436.73;1733154;81;21190;-84
2021/01/19 14:19:52;;;;;;;38.10;14.55;;;;;;;-13.51;94.80;101438.53;1758093;80;21213;-85
2021/01/19 14:22:20;;;;;;;43.30;15.83;;;;;;;-13.13;97.03;101435.63;1758178;81;21176;-84
2021/01/19 14:24:48;;;;;;;36.25;13.60;;;;;;;-12.99;96.59;101434.48;1758015;81;21548;-85
2021/01/19 14:27:16;;;;;;;41.70;16.85;;;;;;;-12.86;97.77;101434.51;1757985;81;21159;-85
2021/01/19 14:29:46;;;;;;;33.73;15.07;;;;;;;-12.82;97.38;101439.23;1736249;81;21178;-85
2021/01/19 14:32:14;;;;;;;38.48;13.38;;;;;;;-12.85;97.03;101433.30;1727840;83;21155;-85
2021/01/19 14:34:42;;;;;;;32.73;14.03;;;;;;;-12.87;96.60;101441.58;1727925;82;21158;-85
2021/01/19 14:37:17;;;;;;;34.60;15.55;;;;;;;-12.74;97.87;101442.44;1729063;81;21178;-84
2021/01/19 14:39:45;;;;;;;45.78;17.48;;;;;;;-12.74;97.36;101441.18;1754483;81;21649;-85
2021/01/19 14:42:19;;;;;;;43.33;20.20;;;;;;;-12.74;98.19;101444.95;1751108;81;21548;-84
2021/01/19 14:44:47;;;;;;;39.60;16.17;;;;;;;-12.69;97.84;101443.44;1727831;83;21240;-85
2021/01/19 14:47:16;;;;;;;37.10;16.25;;;;;;;-12.91;95.49;101440.62;1727912;82;21154;-85
2021/01/19 14:49:46;;;;;;;39.23;15.50;;;;;;;-13.26;93.30;101441.89;1727803;83;21840;-85
2021/01/19 14:52:14;;;;;;;49.75;20.37;;;;;;;-13.56;91.97;101447.13;1727890;81;21190;-85
2021/01/19 14:54:46;;;;;;;36.00;15.48;;;;;;;-13.84;91.06;101454.84;1758177;81;21198;-85
2021/01/19 14:57:14;;;;;;;38.53;15.43;;;;;;;-14.03;90.74;101453.28;1753639;81;21566;-84
2021/01/19 14:59:42;;;;;;;34.10;15.23;;;;;;;-14.17;90.25;101453.14;1707089;82;21066;-85
2021/01/19 15:02:10;;;;;;;38.65;16.80;;;;;;;-14.31;89.98;101446.34;1750692;81;22291;-84
2021/01/19 15:04:38;;;;;;;46.33;17.57;;;;;;;-14.41;89.65;101446.75;1739882;81;21173;-84
2021/01/19 15:07:08;;;;;;;53.65;21.68;;;;;;;-14.52;89.58;101452.19;1727726;83;21202;-84
2021/01/19 15:09:36;;;;;;;48.35;19.07;;;;;;;-14.64;89.08;101452.92;1753411;81;28176;-85
2021/01/19 15:12:09;;;;;;;37.10;17.65;;;;;;;-14.76;88.95;101455.42;1750185;81;21565;-85
2021/01/19 15:14:41;;;;;;;42.95;17.00;;;;;;;-14.87;88.98;101455.77;1737336;80;21362;-85
2021/01/19 15:17:10;;;;;;;50.92;19.70;;;;;;;-14.91;89.30;101461.88;1757894;81;21505;-84
2021/01/19 15:19:38;;;;;;;40.12;16.00;;;;;;;-14.91;89.44;101466.03;1758077;81;21174;-84
2021/01/19 15:22:08;;;;;;;38.98;16.60;;;;;;;-14.93;89.47;101471.36;1757808;81;21186;-85
2021/01/19 15:24:39;;;;;;;39.98;16.42;;;;;;;-14.93;89.60;101475.10;1754370;81;21539;-84
2021/01/19 15:27:08;;;;;;;43.17;16.23;;;;;;;-14.94;89.55;101479.64;1746001;81;22215;-84
2021/01/19 15:29:37;;;;;;;36.70;15.23;;;;;;;-14.95;89.49;101485.42;1727702;82;21154;-85
2021/01/19 15:32:06;;;;;;;39.08;15.20;;;;;;;-15.00;89.26;101475.22;1743579;81;21293;-85
2021/01/19 15:34:36;;;;;;;39.60;16.48;;;;;;;-15.10;88.72;101482.73;1735979;81;21142;-84
2021/01/19 15:37:07;;;;;;;48.87;19.30;;;;;;;-15.26;88.26;101487.43;1745770;81;21649;-85
2021/01/19 15:39:36;;;;;;;39.63;15.53;;;;;;;-15.39;88.22;101492.67;1741824;81;22287;-85
2021/01/19 15:46:31;;;;;;;50.05;19.45;;;;;;;-15.49;88.67;101497.66;1749629;81;21143;-88
2021/01/19 15:53:25;;;;;;;34.85;13.98;;;;;;;-15.41;89.55;101512.98;1753527;81;21210;-87
2021/01/19 16:00:22;;;;;;;32.03;12.05;;;;;;;-15.25;90.22;101510.79;1746022;81;21852;-89
2021/01/19 16:02:52;;;;;;;43.13;16.52;;;;;;;-15.20;90.06;101520.59;1745038;81;21131;-88
2021/01/19 16:05:27;;;;;;;30.50;11.05;;;;;;;-15.18;90.10;101519.43;1753240;81;21162;-88
2021/01/19 16:08:03;;;;;;;35.43;14.63;;;;;;;-15.15;90.20;101522.05;1758388;81;21127;-88